createdAt,value
2023-10-26T00:01:37.604Z,96205.94
2023-10-26T00:04:04.654Z,96212.16
2023-10-26T00:06:31.215Z,96198.44
2023-10-26T00:08:57.735Z,96208.56
2023-10-26T00:11:24.795Z,96212.72
2023-10-26T00:13:51.220Z,96208.31
2023-10-26T00:16:17.740Z,96203.06
2023-10-26T00:18:44.436Z,96208.72
2023-10-26T00:21:11.018Z,96214.50
2023-10-26T00:23:37.618Z,96218.13
2023-10-26T00:26:04.554Z,96217.75
2023-10-26T00:28:31.331Z,96230.88
2023-10-26T00:30:57.823Z,96232.94
2023-10-26T00:33:24.421Z,96238.25
2023-10-26T00:35:53.087Z,96228.84
2023-10-26T00:38:19.603Z,96227.94
2023-10-26T00:40:46.089Z,96238.56
2023-10-26T00:43:24.967Z,96247.28
2023-10-26T00:45:52.323Z,96248.22
2023-10-26T00:48:20.449Z,96244.53
2023-10-26T00:50:48.766Z,96256.69
2023-10-26T00:53:18.209Z,96260.31
2023-10-26T00:55:48.451Z,96260.63
2023-10-26T00:58:17.084Z,96270.06
2023-10-26T01:00:44.518Z,96264.16
2023-10-26T01:03:12.208Z,96272.06
2023-10-26T01:05:38.738Z,96281.34
2023-10-26T01:08:05.302Z,96277.25
2023-10-26T01:10:33.022Z,96279.03
2023-10-26T01:12:59.656Z,96286.41
2023-10-26T01:15:26.171Z,96282.75
2023-10-26T01:17:52.707Z,96286.97
2023-10-26T01:20:20.055Z,96296.63
2023-10-26T01:22:46.774Z,96296.72
2023-10-26T01:25:13.443Z,96301.22
2023-10-26T01:27:39.965Z,96296.06
2023-10-26T01:30:07.528Z,96298.38
2023-10-26T01:32:37.010Z,96299.41
2023-10-26T01:35:03.862Z,96299.72
2023-10-26T01:37:30.395Z,96298.06
2023-10-26T01:39:56.913Z,96295.88
2023-10-26T01:42:23.449Z,96301.22
2023-10-26T01:44:50.440Z,96307.03
2023-10-26T01:47:17.101Z,96295.94
2023-10-26T01:49:44.367Z,96296.59
2023-10-26T01:52:10.929Z,96293.50
2023-10-26T01:54:37.432Z,96295.16
2023-10-26T01:57:04.162Z,96291.84
2023-10-26T01:59:31.374Z,96290.81
2023-10-26T02:01:57.914Z,96302.53
2023-10-26T02:04:24.465Z,96307.91
2023-10-26T02:06:51.041Z,96309.19
2023-10-26T02:09:17.529Z,96311.25
2023-10-26T02:11:44.064Z,96309.91
2023-10-26T02:14:10.852Z,96313.97
2023-10-26T02:16:37.503Z,96303.63
2023-10-26T02:19:04.147Z,96305.56
2023-10-26T02:21:30.919Z,96310.28
2023-10-26T02:23:57.498Z,96304.38
2023-10-26T02:26:24.044Z,96310.47
2023-10-26T02:28:50.534Z,96305.28
2023-10-26T02:31:17.069Z,96307.34
2023-10-26T02:33:43.689Z,96315.69
2023-10-26T02:36:10.242Z,96316.44
2023-10-26T02:38:36.669Z,96309.13
2023-10-26T02:41:04.545Z,96318.63
2023-10-26T02:43:31.094Z,96310.19
2023-10-26T02:46:02.191Z,96333.88
2023-10-26T02:48:28.743Z,96327.50
2023-10-26T02:50:55.323Z,96322.22
2023-10-26T02:53:21.774Z,96332.94
2023-10-26T02:55:48.225Z,96326.75
2023-10-26T02:58:14.800Z,96333.22
2023-10-26T03:00:41.715Z,96329.00
2023-10-26T03:03:08.310Z,96326.44
2023-10-26T03:05:35.885Z,96322.47
2023-10-26T03:08:03.346Z,96319.06
2023-10-26T03:10:31.729Z,96321.69
2023-10-26T03:12:58.273Z,96316.63
2023-10-26T03:15:24.874Z,96316.81
2023-10-26T03:17:51.423Z,96313.97
2023-10-26T03:20:17.966Z,96319.53
2023-10-26T03:22:44.420Z,96312.19
2023-10-26T03:25:10.916Z,96314.91
2023-10-26T03:27:37.564Z,96303.38
2023-10-26T03:30:06.731Z,96316.31
2023-10-26T03:32:33.685Z,96322.97
2023-10-26T03:35:00.211Z,96331.22
2023-10-26T03:37:26.818Z,96331.69
2023-10-26T03:39:53.325Z,96327.44
2023-10-26T03:42:20.391Z,96323.59
2023-10-26T03:44:46.962Z,96324.44
2023-10-26T03:47:14.109Z,96320.47
2023-10-26T03:49:40.669Z,96317.72
2023-10-26T03:52:07.723Z,96323.84
2023-10-26T03:54:34.707Z,96326.41
2023-10-26T03:57:01.682Z,96313.22
2023-10-26T03:59:28.184Z,96321.31
2023-10-26T04:01:54.671Z,96325.72
2023-10-26T04:04:21.446Z,96319.94
2023-10-26T04:06:47.930Z,96319.13
2023-10-26T04:09:14.458Z,96319.50
2023-10-26T04:11:41.547Z,96316.31
2023-10-26T04:14:07.998Z,96314.19
2023-10-26T04:16:34.526Z,96324.75
2023-10-26T04:19:01.714Z,96317.38
2023-10-26T04:21:28.477Z,96319.53
2023-10-26T04:23:54.976Z,96322.59
2023-10-26T04:26:21.460Z,96328.09
2023-10-26T04:28:52.367Z,96329.97
2023-10-26T04:31:22.842Z,96333.28
2023-10-26T04:33:49.865Z,96326.69
2023-10-26T04:36:17.127Z,96326.03
2023-10-26T04:38:43.676Z,96327.31
2023-10-26T04:41:10.186Z,96320.09
2023-10-26T04:43:37.080Z,96316.25
2023-10-26T04:46:04.348Z,96305.41
2023-10-26T04:48:31.120Z,96313.63
2023-10-26T04:50:57.900Z,96307.97
2023-10-26T04:53:24.797Z,96304.19
2023-10-26T04:55:51.316Z,96304.91
2023-10-26T04:58:17.741Z,96306.94
2023-10-26T05:00:44.215Z,96315.78
2023-10-26T05:03:11.043Z,96308.03
2023-10-26T05:05:37.642Z,96308.63
2023-10-26T05:08:04.417Z,96310.53
2023-10-26T05:10:30.844Z,96316.13
2023-10-26T05:12:57.309Z,96307.50
2023-10-26T05:15:24.296Z,96304.53
2023-10-26T05:17:50.773Z,96303.75
2023-10-26T05:20:17.251Z,96298.44
2023-10-26T05:22:43.696Z,96297.88
2023-10-26T05:25:10.274Z,96289.16
2023-10-26T05:27:37.582Z,96307.41
2023-10-26T05:30:06.079Z,96293.75
2023-10-26T05:32:32.797Z,96301.56
2023-10-26T05:34:59.284Z,96304.66
2023-10-26T05:37:25.709Z,96306.81
2023-10-26T05:39:52.169Z,96307.19
2023-10-26T05:42:18.821Z,96308.69
2023-10-26T05:44:45.634Z,96303.25
2023-10-26T05:47:12.231Z,96297.28
2023-10-26T05:49:38.803Z,96304.59
2023-10-26T05:52:05.717Z,96295.31
2023-10-26T05:54:32.316Z,96292.75
2023-10-26T05:56:58.999Z,96288.44
2023-10-26T05:59:25.819Z,96290.16
2023-10-26T06:01:52.360Z,96281.53
2023-10-26T06:04:19.056Z,96284.41
2023-10-26T06:06:45.688Z,96294.78
2023-10-26T06:09:12.766Z,96303.00
2023-10-26T06:11:39.455Z,96299.78
2023-10-26T06:14:05.892Z,96298.84
2023-10-26T06:16:32.450Z,96301.91
2023-10-26T06:18:59.615Z,96307.78
2023-10-26T06:21:26.108Z,96313.75
2023-10-26T06:23:52.569Z,96316.44
2023-10-26T06:26:19.105Z,96307.31
2023-10-26T06:28:45.720Z,96311.25
2023-10-26T06:31:13.800Z,96313.75
2023-10-26T06:33:40.447Z,96319.50
2023-10-26T06:36:11.570Z,96322.91
2023-10-26T06:38:39.416Z,96322.50
2023-10-26T06:41:10.448Z,96322.84
2023-10-26T06:43:38.201Z,96323.72
2023-10-26T06:46:05.309Z,96330.84
2023-10-26T06:48:31.994Z,96330.16
2023-10-26T06:51:01.657Z,96325.94
2023-10-26T06:53:28.303Z,96334.75
2023-10-26T06:55:54.826Z,96326.97
2023-10-26T06:58:21.468Z,96319.59
2023-10-26T07:00:52.223Z,96327.19
2023-10-26T07:03:20.200Z,96333.88
2023-10-26T07:05:46.963Z,96324.63
2023-10-26T07:08:13.390Z,96321.81
2023-10-26T07:10:40.841Z,96310.16
2023-10-26T07:13:09.629Z,96308.25
2023-10-26T07:15:36.986Z,96302.25
2023-10-26T07:18:04.705Z,96306.69
2023-10-26T07:20:31.233Z,96309.38
2023-10-26T07:22:57.698Z,96303.69
2023-10-26T07:25:26.295Z,96303.59
2023-10-26T07:27:52.771Z,96301.63
2023-10-26T07:30:19.411Z,96293.47
2023-10-26T07:32:46.090Z,96291.81
2023-10-26T07:35:13.003Z,96295.34
2023-10-26T07:37:39.901Z,96293.09
2023-10-26T07:40:28.628Z,96284.66
2023-10-26T07:42:54.484Z,96279.44
2023-10-26T07:45:21.234Z,96278.28
2023-10-26T07:47:47.939Z,96291.78
2023-10-26T07:50:14.531Z,96272.59
2023-10-26T07:52:40.970Z,96273.81
2023-10-26T07:55:08.379Z,96271.13
2023-10-26T07:57:35.290Z,96271.47
2023-10-26T08:00:01.986Z,96261.03
2023-10-26T08:02:30.198Z,96267.59
2023-10-26T08:04:57.479Z,96273.00
2023-10-26T08:07:24.063Z,96272.78
2023-10-26T08:09:50.550Z,96277.47
2023-10-26T08:12:17.008Z,96279.94
2023-10-26T08:16:11.276Z,96276.75
2023-10-26T08:17:33.581Z,96285.06
2023-10-26T08:20:01.117Z,96272.66
2023-10-26T08:22:30.637Z,96271.84
2023-10-26T08:24:57.624Z,96273.09
2023-10-26T08:27:24.762Z,96281.66
2023-10-26T08:29:51.746Z,96280.13
2023-10-26T08:32:18.935Z,96289.94
2023-10-26T08:34:45.703Z,96300.03
2023-10-26T08:37:13.906Z,96310.69
2023-10-26T08:39:42.525Z,96313.41
2023-10-26T08:42:09.098Z,96313.50
2023-10-26T08:44:39.949Z,96311.94
2023-10-26T08:47:07.391Z,96307.72
2023-10-26T08:49:34.368Z,96312.94
2023-10-26T08:52:01.032Z,96332.16
2023-10-26T08:54:29.943Z,96337.09
2023-10-26T08:56:56.498Z,96335.75
2023-10-26T08:59:23.009Z,96342.00
2023-10-26T09:01:50.909Z,96341.69
2023-10-26T09:04:17.613Z,96352.72
2023-10-26T09:06:51.405Z,96347.56
2023-10-26T09:09:19.883Z,96353.38
2023-10-26T09:11:49.900Z,96346.59
2023-10-26T09:14:22.927Z,96347.47
2023-10-26T09:16:50.720Z,96342.13
2023-10-26T09:19:20.618Z,96336.28
2023-10-26T09:21:53.053Z,96338.25
2023-10-26T09:24:29.578Z,96344.88
2023-10-26T09:26:59.631Z,96337.59
2023-10-26T09:29:55.700Z,96334.28
2023-10-26T09:32:32.660Z,96342.41
2023-10-26T09:34:59.221Z,96343.94
2023-10-26T09:37:28.981Z,96337.16
2023-10-26T09:40:08.541Z,96334.13
2023-10-26T09:42:42.448Z,96338.50
2023-10-26T09:45:09.679Z,96347.91
2023-10-26T09:47:37.630Z,96332.72
2023-10-26T09:50:05.274Z,96333.59
2023-10-26T09:52:32.078Z,96332.09
2023-10-26T09:54:59.192Z,96326.72
2023-10-26T09:57:31.075Z,96325.50
2023-10-26T10:00:00.518Z,96322.75
2023-10-26T10:02:27.306Z,96304.19
2023-10-26T10:04:54.313Z,96304.47
2023-10-26T10:07:47.182Z,96305.72
2023-10-26T10:10:14.612Z,96292.91
2023-10-26T10:12:41.314Z,96293.06
2023-10-26T10:17:44.713Z,96292.16
2023-10-26T10:20:17.094Z,96293.81
2023-10-26T10:22:48.684Z,96299.69
2023-10-26T10:25:19.520Z,96293.34
2023-10-26T10:27:49.194Z,96294.84
2023-10-26T10:30:20.029Z,96285.00
2023-10-26T10:32:46.558Z,96282.75
2023-10-26T10:35:25.104Z,96277.41
2023-10-26T10:38:10.411Z,96282.00
2023-10-26T10:40:36.962Z,96290.03
2023-10-26T10:43:04.596Z,96292.63
2023-10-26T10:45:33.990Z,96278.69
2023-10-26T10:48:05.897Z,96282.31
2023-10-26T10:50:32.520Z,96294.47
2023-10-26T10:53:01.672Z,96300.47
2023-10-26T10:55:30.035Z,96302.31
2023-10-26T10:57:56.699Z,96289.44
2023-10-26T11:00:27.791Z,96281.31
2023-10-26T11:02:54.810Z,96269.13
2023-10-26T11:05:21.610Z,96260.84
2023-10-26T11:07:48.334Z,96256.28
2023-10-26T11:10:14.874Z,96260.56
2023-10-26T11:12:50.412Z,96254.75
2023-10-26T11:15:17.186Z,96258.16
2023-10-26T11:17:44.969Z,96260.88
2023-10-26T11:20:43.401Z,96250.22
2023-10-26T11:23:12.912Z,96265.03
2023-10-26T11:25:40.000Z,96252.84
2023-10-26T11:28:07.558Z,96253.00
2023-10-26T11:30:52.018Z,96253.50
2023-10-26T11:33:37.602Z,96243.84
2023-10-26T11:36:11.385Z,96240.50
2023-10-26T11:38:51.044Z,96250.47
2023-10-26T11:41:28.073Z,96235.09
2023-10-26T11:43:54.749Z,96255.09
2023-10-26T11:46:32.707Z,96262.47
2023-10-26T11:49:00.493Z,96252.34
2023-10-26T11:51:27.274Z,96241.28
2023-10-26T11:53:53.842Z,96236.69
2023-10-26T11:56:20.370Z,96237.13
2023-10-26T11:58:46.854Z,96232.41
2023-10-26T12:01:13.533Z,96237.56
2023-10-26T12:03:44.503Z,96243.72
2023-10-26T12:06:11.263Z,96244.03
2023-10-26T12:08:38.448Z,96246.19
2023-10-26T12:11:04.915Z,96255.41
2023-10-26T12:13:35.899Z,96249.84
2023-10-26T12:16:03.394Z,96247.13
2023-10-26T12:18:29.972Z,96251.56
2023-10-26T12:20:56.703Z,96249.72
2023-10-26T12:23:23.365Z,96250.91
2023-10-26T12:25:49.818Z,96250.78
2023-10-26T12:28:22.924Z,96248.47
2023-10-26T12:30:50.398Z,96238.22
2023-10-26T12:33:17.022Z,96237.59
2023-10-26T12:35:43.544Z,96242.50
2023-10-26T12:38:10.140Z,96240.03
2023-10-26T12:40:36.646Z,96240.03
2023-10-26T12:43:03.212Z,96231.19
2023-10-26T12:45:29.711Z,96228.84
2023-10-26T12:47:56.316Z,96218.91
2023-10-26T12:50:22.873Z,96222.56
2023-10-26T12:52:49.334Z,96218.72
2023-10-26T12:55:16.478Z,96210.59
2023-10-26T12:57:43.042Z,96205.72
2023-10-26T13:00:09.942Z,96209.69
2023-10-26T13:02:36.667Z,96200.34
2023-10-26T13:05:03.246Z,96190.66
2023-10-26T13:07:29.686Z,96188.97
2023-10-26T13:09:56.240Z,96183.47
2023-10-26T13:12:22.700Z,96192.34
2023-10-26T13:14:50.232Z,96188.22
2023-10-26T13:17:23.361Z,96181.44
2023-10-26T13:19:49.989Z,96183.16
2023-10-26T13:22:16.485Z,96173.31
2023-10-26T13:24:43.203Z,96174.25
2023-10-26T13:27:09.918Z,96177.00
2023-10-26T13:29:36.443Z,96188.53
2023-10-26T13:32:03.019Z,96184.22
2023-10-26T13:34:29.584Z,96189.09
2023-10-26T13:36:56.095Z,96194.94
2023-10-26T13:39:22.571Z,96194.78
2023-10-26T13:41:49.532Z,96192.22
2023-10-26T13:44:16.016Z,96192.78
2023-10-26T13:46:42.502Z,96193.88
2023-10-26T13:49:19.977Z,96193.72
2023-10-26T13:51:46.536Z,96189.53
2023-10-26T13:54:13.185Z,96194.66
2023-10-26T13:56:39.791Z,96193.09
2023-10-26T13:59:06.370Z,96186.06
2023-10-26T14:01:33.317Z,96181.81
2023-10-26T14:04:00.395Z,96177.75
2023-10-26T14:06:27.200Z,96172.41
2023-10-26T14:08:53.997Z,96168.16
2023-10-26T14:11:20.455Z,96164.59
2023-10-26T14:13:46.931Z,96167.81
2023-10-26T14:16:13.519Z,96163.69
2023-10-26T14:18:40.085Z,96157.72
2023-10-26T14:21:06.795Z,96165.97
2023-10-26T14:23:33.714Z,96168.88
2023-10-26T14:26:00.220Z,96163.97
2023-10-26T14:28:26.818Z,96160.75
2023-10-26T14:30:53.399Z,96161.72
2023-10-26T14:33:19.877Z,96152.97
2023-10-26T14:35:52.550Z,96159.84
2023-10-26T14:38:22.180Z,96155.09
2023-10-26T14:40:56.388Z,96161.84
2023-10-26T14:43:24.095Z,96167.34
2023-10-26T14:45:51.591Z,96163.38
2023-10-26T14:48:18.799Z,96162.16
2023-10-26T14:50:45.826Z,96171.19
2023-10-26T14:53:13.323Z,96168.44
2023-10-26T14:55:42.821Z,96170.75
2023-10-26T14:58:09.731Z,96164.59
2023-10-26T15:00:37.714Z,96160.44
2023-10-26T15:03:07.991Z,96148.97
2023-10-26T15:05:35.161Z,96144.53
2023-10-26T15:08:02.188Z,96143.75
2023-10-26T15:10:33.552Z,96151.59
2023-10-26T15:13:03.102Z,96147.28
2023-10-26T15:15:29.580Z,96148.38
2023-10-26T15:17:56.278Z,96144.06
2023-10-26T15:20:22.864Z,96146.19
2023-10-26T15:22:49.329Z,96153.25
2023-10-26T15:25:15.978Z,96148.03
2023-10-26T15:27:42.471Z,96142.22
2023-10-26T15:30:09.628Z,96142.97
2023-10-26T15:32:38.754Z,96133.19
2023-10-26T15:35:05.745Z,96134.41
2023-10-26T15:37:32.183Z,96127.81
2023-10-26T15:39:58.853Z,96133.47
2023-10-26T15:42:25.362Z,96121.66
2023-10-26T15:44:52.169Z,96112.94
2023-10-26T15:47:20.512Z,96125.66
2023-10-26T15:49:48.173Z,96117.81
2023-10-26T15:52:15.807Z,96115.25
2023-10-26T15:54:42.672Z,96111.69
2023-10-26T15:57:09.502Z,96114.00
2023-10-26T15:59:35.960Z,96106.19
2023-10-26T16:02:02.987Z,96115.84
2023-10-26T16:04:29.460Z,96120.13
2023-10-26T16:06:56.333Z,96110.78
2023-10-26T16:09:22.882Z,96124.44
2023-10-26T16:11:49.484Z,96133.94
2023-10-26T16:14:16.129Z,96136.84
2023-10-26T16:16:42.684Z,96143.28
2023-10-26T16:19:09.255Z,96138.25
2023-10-26T16:21:36.034Z,96126.28
2023-10-26T16:24:02.683Z,96126.72
2023-10-26T16:26:36.446Z,96134.41
2023-10-26T16:29:03.111Z,96135.91
2023-10-26T16:31:30.097Z,96137.00
2023-10-26T16:33:57.698Z,96130.09
2023-10-26T16:36:24.220Z,96138.38
2023-10-26T16:38:50.863Z,96146.81
2023-10-26T16:41:17.362Z,96138.22
2023-10-26T16:43:43.815Z,96134.25
2023-10-26T16:46:12.879Z,96134.28
2023-10-26T16:48:40.729Z,96135.16
2023-10-26T16:51:07.232Z,96144.06
2023-10-26T16:53:33.740Z,96151.72
2023-10-26T16:56:01.788Z,96150.78
2023-10-26T16:58:29.090Z,96150.34
2023-10-26T17:00:59.069Z,96141.91
2023-10-26T17:03:26.701Z,96137.91
2023-10-26T17:05:53.244Z,96141.63
2023-10-26T17:08:22.715Z,96145.91
2023-10-26T17:10:49.724Z,96140.06
2023-10-26T17:13:16.946Z,96135.47
2023-10-26T17:15:45.162Z,96133.91
2023-10-26T17:18:11.744Z,96124.13
2023-10-26T17:20:38.478Z,96135.63
2023-10-26T17:23:05.405Z,96128.75
2023-10-26T17:25:36.142Z,96130.56
2023-10-26T17:28:03.084Z,96132.09
2023-10-26T17:30:30.379Z,96137.00
2023-10-26T17:32:57.232Z,96133.34
2023-10-26T17:35:24.046Z,96133.78
2023-10-26T17:37:50.524Z,96140.81
2023-10-26T17:40:17.233Z,96130.88
2023-10-26T17:42:43.724Z,96136.69
2023-10-26T17:45:10.665Z,96141.44
2023-10-26T17:47:37.244Z,96136.84
2023-10-26T17:50:03.996Z,96128.41
2023-10-26T17:52:30.532Z,96125.06
2023-10-26T17:54:57.018Z,96135.16
2023-10-26T17:57:23.590Z,96141.13
2023-10-26T17:59:50.095Z,96135.31
2023-10-26T18:02:16.559Z,96130.25
2023-10-26T18:04:43.008Z,96131.19
2023-10-26T18:07:09.523Z,96135.47
2023-10-26T18:09:36.062Z,96123.06
2023-10-26T18:12:02.648Z,96129.94
2023-10-26T18:14:31.808Z,96125.66
2023-10-26T18:16:58.410Z,96128.56
2023-10-26T18:19:25.042Z,96126.25
2023-10-26T18:21:52.059Z,96137.94
2023-10-26T18:24:18.948Z,96145.91
2023-10-26T18:26:45.451Z,96142.19
2023-10-26T18:29:12.526Z,96142.53
2023-10-26T18:31:39.184Z,96129.03
2023-10-26T18:34:05.881Z,96119.97
2023-10-26T18:36:32.412Z,96126.91
2023-10-26T18:38:59.089Z,96121.03
2023-10-26T18:41:26.512Z,96125.50
2023-10-26T18:43:54.095Z,96116.16
2023-10-26T18:46:20.772Z,96106.03
2023-10-26T18:48:47.487Z,96105.75
2023-10-26T18:51:14.400Z,96099.00
2023-10-26T18:53:41.584Z,96107.88
2023-10-26T18:56:15.615Z,96101.28
2023-10-26T18:58:42.532Z,96101.59
2023-10-26T19:01:09.354Z,96102.38
2023-10-26T19:03:43.112Z,96110.94
2023-10-26T19:06:20.189Z,96108.03
2023-10-26T19:08:46.824Z,96115.84
2023-10-26T19:11:13.564Z,96115.84
2023-10-26T19:13:40.514Z,96114.00
2023-10-26T19:16:07.243Z,96114.75
2023-10-26T19:18:34.430Z,96114.63
2023-10-26T19:21:00.979Z,96121.19
2023-10-26T19:23:27.528Z,96131.31
2023-10-26T19:25:54.098Z,96136.22
2023-10-26T19:28:20.634Z,96140.66
2023-10-26T19:30:47.216Z,96144.78
2023-10-26T19:33:14.325Z,96136.50
2023-10-26T19:35:41.284Z,96149.81
2023-10-26T19:38:07.862Z,96138.66
2023-10-26T19:40:34.459Z,96137.31
2023-10-26T19:43:01.018Z,96124.44
2023-10-26T19:45:27.511Z,96133.16
2023-10-26T19:47:54.273Z,96128.09
2023-10-26T19:50:22.347Z,96140.69
2023-10-26T19:52:50.095Z,96129.78
2023-10-26T19:55:17.271Z,96128.41
2023-10-26T19:57:44.190Z,96132.09
2023-10-26T20:00:11.385Z,96125.00
2023-10-26T20:02:40.827Z,96132.34
2023-10-26T20:05:07.829Z,96125.44
2023-10-26T20:07:34.715Z,96128.22
2023-10-26T20:10:01.381Z,96135.72
2023-10-26T20:12:27.966Z,96132.31
2023-10-26T20:14:54.436Z,96131.53
2023-10-26T20:17:21.167Z,96131.28
2023-10-26T20:19:48.113Z,96129.28
2023-10-26T20:22:15.309Z,96118.41
2023-10-26T20:24:41.843Z,96117.00
2023-10-26T20:27:08.435Z,96116.06
2023-10-26T20:29:34.997Z,96125.75
2023-10-26T20:32:01.602Z,96117.56
2023-10-26T20:34:28.098Z,96116.44
2023-10-26T20:36:54.981Z,96118.25
2023-10-26T20:39:21.503Z,96122.25
2023-10-26T20:41:47.985Z,96117.81
2023-10-26T20:44:14.788Z,96117.66
2023-10-26T20:46:41.616Z,96124.84
2023-10-26T20:49:08.246Z,96125.75
2023-10-26T20:51:34.971Z,96126.41
2023-10-26T20:54:05.102Z,96125.94
2023-10-26T20:56:31.643Z,96120.91
2023-10-26T20:58:58.081Z,96125.66
2023-10-26T21:01:24.549Z,96123.03
2023-10-26T21:03:51.088Z,96119.22
2023-10-26T21:06:17.553Z,96117.38
2023-10-26T21:08:44.693Z,96105.88
2023-10-26T21:11:16.294Z,96101.88
2023-10-26T21:13:42.997Z,96091.31
2023-10-26T21:16:09.782Z,96094.69
2023-10-26T21:18:36.723Z,96088.09
2023-10-26T21:21:07.866Z,96087.03
2023-10-26T21:23:36.012Z,96084.41
2023-10-26T21:26:09.800Z,96088.53
2023-10-26T21:28:36.953Z,96082.09
2023-10-26T21:31:03.617Z,96080.00
2023-10-26T21:33:30.224Z,96072.00
2023-10-26T21:35:56.883Z,96066.81
2023-10-26T21:38:23.492Z,96061.59
2023-10-26T21:40:50.137Z,96058.41
2023-10-26T21:43:16.937Z,96055.63
2023-10-26T21:45:43.808Z,96046.00
2023-10-26T21:48:10.893Z,96051.81
2023-10-26T21:50:37.426Z,96045.22
2023-10-26T21:53:03.863Z,96039.69
2023-10-26T21:55:30.342Z,96031.63
2023-10-26T21:57:57.005Z,96044.16
2023-10-26T22:00:23.497Z,96041.09
2023-10-26T22:02:49.979Z,96043.25
2023-10-26T22:05:16.574Z,96050.75
2023-10-26T22:07:45.527Z,96052.09
2023-10-26T22:10:12.101Z,96047.78
2023-10-26T22:12:38.672Z,96051.78
2023-10-26T22:15:06.048Z,96046.91
2023-10-26T22:17:32.573Z,96047.66
2023-10-26T22:19:59.206Z,96036.94
2023-10-26T22:22:25.700Z,96039.69
2023-10-26T22:24:52.596Z,96033.13
2023-10-26T22:27:19.149Z,96034.78
2023-10-26T22:29:46.019Z,96029.41
2023-10-26T22:32:13.298Z,96025.56
2023-10-26T22:34:39.932Z,96018.97
2023-10-26T22:37:06.519Z,96019.63
2023-10-26T22:39:32.959Z,96018.03
2023-10-26T22:41:59.474Z,96023.34
2023-10-26T22:44:26.007Z,96027.47
2023-10-26T22:46:52.522Z,96019.81
2023-10-26T22:49:19.132Z,96012.59
2023-10-26T22:51:45.819Z,96015.72
2023-10-26T22:54:12.398Z,96020.75
2023-10-26T22:56:39.117Z,96015.63
2023-10-26T22:59:05.812Z,96015.59
2023-10-26T23:01:32.227Z,96012.69
2023-10-26T23:03:58.750Z,96012.25
2023-10-26T23:06:25.415Z,96006.72
2023-10-26T23:08:51.939Z,96008.56
2023-10-26T23:11:18.379Z,96005.03
2023-10-26T23:13:44.861Z,96002.13
2023-10-26T23:16:11.482Z,96001.81
2023-10-26T23:18:38.121Z,96001.84
2023-10-26T23:21:04.970Z,96003.94
2023-10-26T23:23:31.668Z,96005.16
2023-10-26T23:25:58.449Z,96013.53
2023-10-26T23:28:25.060Z,96006.66
2023-10-26T23:30:51.527Z,95999.31
2023-10-26T23:33:17.992Z,96006.34
2023-10-26T23:35:44.610Z,96010.78
2023-10-26T23:38:11.357Z,96007.94
2023-10-26T23:40:37.867Z,96009.63
2023-10-26T23:43:04.656Z,96005.81
2023-10-26T23:45:31.152Z,95998.13
2023-10-26T23:47:57.819Z,95999.34
2023-10-26T23:50:24.275Z,95995.69
2023-10-26T23:52:50.721Z,95999.81
2023-10-26T23:55:17.281Z,95996.19
2023-10-26T23:57:43.864Z,95993.59
